Terminal Aerodrome Forecast
Issued by NWS

Home | Current Version | Previous Version | Text Only | Print | Product List | Glossary Off
Versions: 1 2 3 4 5 6 7 8 9 10 11 12 13 14 15 16 17 18 19

000
FTUS43 KBIS 262300
TAFDIK
TAF
KDIK 262337Z 2700/2724 VRB06KT P6SM SCT020
     FM270300 14009KT P6SM OVC020
     FM271400 14010KT 1SM -SN BR OVC008
     FM271800 15014KT 6SM -FZRASG BR OVC010
     FM272100 15010KT P6SM OVC015=

USA.gov is the U.S. government's official web portal to all federal, state and local government web resources and services.